Puerto Penasco, SON, Mexico
Current Conditions -  °F | °C
As of 12:57 AM on Sunday 26 Oct 2014 (Local Time) from KNYL Reporting Station
Clear Clear  
Wind Chill: 78°   Ceiling: Unl
Heat Index: 80°   Visibility: 10mi
Dew Point: 64°   Wind: 8mph
Humidity: 62%   Direction: 150°SSE
Pressure: 29.88"   Gusts: NA
Location:  31.32°N, 113.53°W
Report Text: KNYL 260757Z AUTO 15007KT 10SM CLR 26/18 A2988 RMK AO2 SLP114 T02560178
Loading
Personal Weather Stations






























Interactive Weather Map
Tropical Storm Tracking
New forecast layout! Learn more

10-Day Weather Forecast

Advertisements
Track Severe Weather on mobile